Terminal Aerodrome Forecast
Issued by NWS

Home | Current Version | Previous Version | Text Only | Print | Product List | Glossary On
Versions: 1 2 3 4 5 6 7 8 9 10 11 12 13 14 15 16 17 18 19 20 21 22
000
FTUS45 KBOU 311127
TAFAPA
TAF
KAPA 311127Z 3112/0112 VRB04KT P6SM SCT200
     FM311400 34005KT P6SM VCFG SCT200
     FM311700 06007KT P6SM FEW090 SCT140 SCT200
     FM010200 13009KT P6SM SCT120 SCT200
     FM010500 17011KT P6SM FEW120 SCT200=

USA.gov is the U.S. government's official web portal to all federal, state and local government web resources and services.